createdAt,value
2022-09-21T00:00:06.843Z,19.82
2022-09-21T00:00:16.842Z,19.83
2022-09-21T00:00:26.841Z,19.86
2022-09-21T00:00:36.842Z,19.83
2022-09-21T00:00:46.864Z,19.80
2022-09-21T00:00:56.875Z,19.83
2022-09-21T00:01:06.910Z,19.79
2022-09-21T00:01:16.917Z,19.82
2022-09-21T00:01:26.897Z,19.82
2022-09-21T00:01:36.873Z,19.78
2022-09-21T00:01:46.833Z,19.80
2022-09-21T00:01:56.903Z,19.76
2022-09-21T00:02:16.939Z,19.76
2022-09-21T00:02:26.846Z,19.80
2022-09-21T00:02:36.909Z,19.78
2022-09-21T00:02:46.839Z,19.76
2022-09-21T00:02:56.825Z,19.76
2022-09-21T00:03:06.823Z,19.75
2022-09-21T00:03:16.825Z,19.75
2022-09-21T00:03:26.824Z,19.75
2022-09-21T00:03:36.819Z,19.72
2022-09-21T00:03:46.818Z,19.76
2022-09-21T00:03:56.827Z,19.72
2022-09-21T00:04:06.965Z,19.76
2022-09-21T00:04:16.816Z,19.79
2022-09-21T00:04:26.814Z,19.78
2022-09-21T00:04:36.817Z,19.78
2022-09-21T00:04:46.809Z,19.78
2022-09-21T00:04:56.811Z,19.75
2022-09-21T00:05:06.812Z,19.76
2022-09-21T00:05:16.810Z,19.75
2022-09-21T00:05:26.805Z,19.75
2022-09-21T00:05:36.808Z,19.76
2022-09-21T00:05:46.806Z,19.71
2022-09-21T00:05:56.806Z,19.71
2022-09-21T00:06:06.800Z,19.72
2022-09-21T00:06:16.810Z,19.70
2022-09-21T00:06:26.802Z,19.68
2022-09-21T00:06:36.799Z,19.68
2022-09-21T00:06:46.797Z,19.68
2022-09-21T00:06:56.798Z,19.67
2022-09-21T00:07:06.793Z,19.68
2022-09-21T00:07:16.798Z,19.68
2022-09-21T00:07:26.791Z,19.71
2022-09-21T00:07:36.797Z,19.67
2022-09-21T00:07:46.802Z,19.70
2022-09-21T00:07:56.791Z,19.70
2022-09-21T00:08:06.788Z,19.70
2022-09-21T00:08:16.788Z,19.65
2022-09-21T00:08:26.783Z,19.65
2022-09-21T00:08:36.792Z,19.70
2022-09-21T00:08:46.781Z,19.68
2022-09-21T00:08:56.783Z,19.70
2022-09-21T00:09:06.779Z,19.68
2022-09-21T00:09:16.783Z,19.70
2022-09-21T00:09:26.776Z,19.68
2022-09-21T00:09:46.776Z,19.70
2022-09-21T00:09:56.780Z,19.71
2022-09-21T00:10:06.775Z,19.71
2022-09-21T00:10:16.774Z,19.71
2022-09-21T00:10:26.777Z,19.72
2022-09-21T00:10:36.774Z,19.75
2022-09-21T00:10:46.767Z,19.70
2022-09-21T00:10:56.775Z,19.72
2022-09-21T00:11:06.764Z,19.72
2022-09-21T00:11:16.767Z,19.71
2022-09-21T00:11:26.764Z,19.71
2022-09-21T00:11:36.764Z,19.72
2022-09-21T00:11:46.761Z,19.71
2022-09-21T00:11:58.351Z,19.71
2022-09-21T00:12:06.758Z,19.70
2022-09-21T00:12:16.763Z,19.70
2022-09-21T00:12:26.764Z,19.71
2022-09-21T00:12:36.795Z,19.71
2022-09-21T00:12:46.758Z,19.71
2022-09-21T00:12:56.774Z,19.67
2022-09-21T00:13:06.760Z,19.68
2022-09-21T00:13:16.771Z,19.68
2022-09-21T00:13:26.750Z,19.67
2022-09-21T00:13:36.749Z,19.68
2022-09-21T00:13:46.860Z,19.68
2022-09-21T00:13:56.786Z,19.71
2022-09-21T00:14:06.832Z,19.71
2022-09-21T00:14:16.743Z,19.68
2022-09-21T00:14:26.744Z,19.70
2022-09-21T00:14:46.741Z,19.70
2022-09-21T00:14:56.741Z,19.71
2022-09-21T00:15:06.736Z,19.76
2022-09-21T00:15:16.736Z,19.71
2022-09-21T00:15:26.733Z,19.72
2022-09-21T00:15:36.741Z,19.68
2022-09-21T00:15:46.735Z,19.71
2022-09-21T00:15:56.739Z,19.72
2022-09-21T00:16:06.735Z,19.70
2022-09-21T00:16:16.750Z,19.72
2022-09-21T00:16:26.760Z,19.72
2022-09-21T00:16:37.119Z,19.75
2022-09-21T00:16:46.782Z,19.75
2022-09-21T00:16:56.750Z,19.75
2022-09-21T00:17:06.722Z,19.76
2022-09-21T00:17:16.724Z,19.78
2022-09-21T00:17:26.719Z,19.80
2022-09-21T00:17:36.733Z,19.78
2022-09-21T00:17:46.739Z,19.79
2022-09-21T00:17:56.719Z,19.80
2022-09-21T00:18:06.718Z,19.79
2022-09-21T00:18:16.718Z,19.79
2022-09-21T00:18:26.725Z,19.80
2022-09-21T00:18:36.718Z,19.80
2022-09-21T00:18:46.710Z,19.79
2022-09-21T00:18:56.714Z,19.80
2022-09-21T00:19:06.955Z,19.82
2022-09-21T00:19:16.714Z,19.82
2022-09-21T00:19:26.708Z,19.80
2022-09-21T00:19:36.712Z,19.83
2022-09-21T00:19:46.704Z,19.83
2022-09-21T00:19:56.707Z,19.82
2022-09-21T00:20:06.703Z,19.80
2022-09-21T00:20:16.704Z,19.82
2022-09-21T00:20:26.699Z,19.82
2022-09-21T00:20:36.704Z,19.80
2022-09-21T00:20:46.701Z,19.80
2022-09-21T00:20:56.698Z,19.80
2022-09-21T00:21:06.696Z,19.82
2022-09-21T00:21:16.701Z,19.79
2022-09-21T00:21:26.693Z,19.82
2022-09-21T00:21:36.696Z,19.83
2022-09-21T00:21:46.692Z,19.83
2022-09-21T00:21:56.694Z,19.82
2022-09-21T00:22:06.691Z,19.85
2022-09-21T00:22:16.696Z,19.85
2022-09-21T00:22:26.689Z,19.85
2022-09-21T00:22:36.689Z,19.85
2022-09-21T00:22:46.690Z,19.87
2022-09-21T00:22:56.696Z,19.85
2022-09-21T00:23:06.691Z,19.86
2022-09-21T00:23:16.685Z,19.85
2022-09-21T00:23:26.681Z,19.86
2022-09-21T00:23:36.680Z,19.82
2022-09-21T00:23:46.679Z,19.85
2022-09-21T00:23:56.678Z,19.86
2022-09-21T00:24:06.708Z,19.83
2022-09-21T00:24:16.674Z,19.83
2022-09-21T00:24:26.676Z,19.83
2022-09-21T00:24:46.677Z,19.82
2022-09-21T00:24:56.672Z,19.82
2022-09-21T00:25:06.669Z,19.85
2022-09-21T00:25:16.666Z,19.80
2022-09-21T00:25:26.674Z,19.85
2022-09-21T00:25:36.665Z,19.83
2022-09-21T00:25:46.666Z,19.83
2022-09-21T00:25:56.665Z,19.86
2022-09-21T00:26:06.664Z,19.89
2022-09-21T00:26:16.662Z,19.86
2022-09-21T00:26:26.662Z,19.86
2022-09-21T00:26:36.661Z,19.86
2022-09-21T00:26:46.659Z,19.90
2022-09-21T00:26:56.657Z,19.86
2022-09-21T00:27:06.658Z,19.85
2022-09-21T00:27:16.651Z,19.87
2022-09-21T00:27:26.653Z,19.87
2022-09-21T00:27:36.655Z,19.86
2022-09-21T00:27:46.654Z,19.87
2022-09-21T00:27:56.649Z,19.85
2022-09-21T00:28:06.650Z,19.83
2022-09-21T00:28:16.688Z,19.86
2022-09-21T00:28:26.657Z,19.83
2022-09-21T00:28:36.649Z,19.83
2022-09-21T00:28:46.653Z,19.83
2022-09-21T00:28:56.674Z,19.82
2022-09-21T00:29:06.642Z,19.79
2022-09-21T00:29:16.666Z,19.80
2022-09-21T00:29:26.644Z,19.82
2022-09-21T00:29:36.639Z,19.79
2022-09-21T00:29:46.638Z,19.79
2022-09-21T00:29:56.635Z,19.76
2022-09-21T00:30:06.636Z,19.79
2022-09-21T00:30:16.679Z,19.76
2022-09-21T00:30:26.646Z,19.75
2022-09-21T00:30:36.669Z,19.75
2022-09-21T00:30:46.643Z,19.72
2022-09-21T00:30:56.640Z,19.76
2022-09-21T00:31:06.643Z,19.71
2022-09-21T00:31:16.674Z,19.72
2022-09-21T00:31:26.717Z,19.70
2022-09-21T00:31:36.706Z,19.71
2022-09-21T00:31:46.675Z,19.68
2022-09-21T00:31:56.668Z,19.70
2022-09-21T00:32:16.620Z,19.68
2022-09-21T00:32:26.623Z,19.68
2022-09-21T00:32:36.616Z,19.67
2022-09-21T00:32:46.619Z,19.67
2022-09-21T00:32:56.622Z,19.72
2022-09-21T00:33:06.616Z,19.67
2022-09-21T00:33:16.614Z,19.71
2022-09-21T00:33:33.138Z,19.70
2022-09-21T00:33:37.800Z,19.67
2022-09-21T00:33:47.824Z,19.68
2022-09-21T00:33:57.799Z,19.72
2022-09-21T00:34:07.994Z,19.70
2022-09-21T00:34:17.796Z,19.68
2022-09-21T00:34:27.799Z,19.70
2022-09-21T00:34:37.794Z,19.70
2022-09-21T00:34:47.794Z,19.71
2022-09-21T00:34:57.792Z,19.71
2022-09-21T00:35:07.798Z,19.71
2022-09-21T00:35:17.790Z,19.68
2022-09-21T00:35:27.788Z,19.71
2022-09-21T00:35:37.801Z,19.72
2022-09-21T00:35:47.789Z,19.78
2022-09-21T00:35:57.785Z,19.72
2022-09-21T00:36:07.785Z,19.75
2022-09-21T00:36:17.783Z,19.75
2022-09-21T00:36:27.823Z,19.71
2022-09-21T00:36:37.780Z,19.75
2022-09-21T00:36:47.781Z,19.75
2022-09-21T00:36:57.777Z,19.75
2022-09-21T00:37:17.776Z,19.71
2022-09-21T00:37:27.781Z,19.71
2022-09-21T00:37:37.772Z,19.71
2022-09-21T00:37:47.779Z,19.65
2022-09-21T00:37:57.772Z,19.71
2022-09-21T00:38:07.772Z,19.67
2022-09-21T00:38:17.770Z,19.67
2022-09-21T00:38:27.770Z,19.67
2022-09-21T00:38:37.767Z,19.68
2022-09-21T00:38:47.783Z,19.67
2022-09-21T00:38:57.763Z,19.65
2022-09-21T00:39:07.765Z,19.64
2022-09-21T00:39:17.775Z,19.65
2022-09-21T00:39:27.764Z,19.64
2022-09-21T00:39:37.761Z,19.67
2022-09-21T00:39:47.762Z,19.64
2022-09-21T00:39:57.755Z,19.62
2022-09-21T00:40:07.833Z,19.64
2022-09-21T00:40:17.789Z,19.64
2022-09-21T00:40:27.808Z,19.64
2022-09-21T00:40:37.770Z,19.62
2022-09-21T00:40:47.752Z,19.64
2022-09-21T00:40:57.752Z,19.62
2022-09-21T00:41:07.755Z,19.65
2022-09-21T00:41:17.748Z,19.67
2022-09-21T00:41:27.764Z,19.64
2022-09-21T00:41:37.746Z,19.65
2022-09-21T00:41:47.748Z,19.65
2022-09-21T00:41:57.741Z,19.62
2022-09-21T00:42:07.746Z,19.65
2022-09-21T00:42:17.744Z,19.65
2022-09-21T00:42:27.745Z,19.67
2022-09-21T00:42:37.748Z,19.65
2022-09-21T00:42:47.743Z,19.65
2022-09-21T00:42:57.738Z,19.64
2022-09-21T00:43:07.737Z,19.67
2022-09-21T00:43:17.738Z,19.67
2022-09-21T00:43:27.736Z,19.65
2022-09-21T00:43:37.733Z,19.65
2022-09-21T00:43:47.736Z,19.64
2022-09-21T00:43:57.734Z,19.64
2022-09-21T00:44:07.732Z,19.62
2022-09-21T00:44:17.728Z,19.64
2022-09-21T00:44:27.732Z,19.65
2022-09-21T00:44:47.729Z,19.64
2022-09-21T00:44:57.730Z,19.65
2022-09-21T00:45:07.727Z,19.62
2022-09-21T00:45:17.722Z,19.62
2022-09-21T00:45:27.745Z,19.61
2022-09-21T00:45:37.768Z,19.65
2022-09-21T00:45:47.758Z,19.64
2022-09-21T00:45:57.756Z,19.65
2022-09-21T00:46:07.750Z,19.64
2022-09-21T00:46:17.728Z,19.65
2022-09-21T00:46:27.716Z,19.62
2022-09-21T00:46:37.712Z,19.61
2022-09-21T00:46:47.711Z,19.65
2022-09-21T00:46:57.711Z,19.65
2022-09-21T00:47:17.717Z,19.62
2022-09-21T00:47:27.710Z,19.64
2022-09-21T00:47:37.706Z,19.62
2022-09-21T00:47:47.718Z,19.67
2022-09-21T00:47:57.703Z,19.62
2022-09-21T00:48:07.705Z,19.60
2022-09-21T00:48:17.701Z,19.61
2022-09-21T00:48:27.705Z,19.64
2022-09-21T00:48:37.697Z,19.58
2022-09-21T00:48:47.703Z,19.61
2022-09-21T00:48:57.699Z,19.60
2022-09-21T00:49:07.797Z,19.60
2022-09-21T00:49:17.695Z,19.58
2022-09-21T00:49:27.699Z,19.61
2022-09-21T00:49:47.697Z,19.61
2022-09-21T00:49:57.689Z,19.60
2022-09-21T00:50:07.712Z,19.60
2022-09-21T00:50:17.693Z,19.64
2022-09-21T00:50:27.691Z,19.62
2022-09-21T00:50:37.685Z,19.61
2022-09-21T00:50:47.687Z,19.62
2022-09-21T00:50:57.684Z,19.62
2022-09-21T00:51:07.690Z,19.61
2022-09-21T00:51:17.682Z,19.60
2022-09-21T00:51:27.681Z,19.60
2022-09-21T00:51:37.680Z,19.62
2022-09-21T00:51:47.683Z,19.60
2022-09-21T00:51:57.681Z,19.60
2022-09-21T00:52:17.712Z,19.62
2022-09-21T00:52:27.719Z,19.64
2022-09-21T00:52:37.672Z,19.62
2022-09-21T00:52:47.675Z,19.61
2022-09-21T00:52:57.671Z,19.62
2022-09-21T00:53:07.673Z,19.61
2022-09-21T00:53:17.668Z,19.68
2022-09-21T00:53:27.669Z,19.61
2022-09-21T00:53:37.672Z,19.60
2022-09-21T00:53:47.667Z,19.61
2022-09-21T00:53:57.670Z,19.60
2022-09-21T00:54:07.668Z,19.62
2022-09-21T00:54:17.678Z,19.65
2022-09-21T00:54:27.667Z,19.64
2022-09-21T00:54:37.660Z,19.61
2022-09-21T00:54:47.664Z,19.67
2022-09-21T00:54:57.661Z,19.64
2022-09-21T00:55:07.657Z,19.67
2022-09-21T00:55:17.676Z,19.64
2022-09-21T00:55:27.653Z,19.62
2022-09-21T00:55:37.651Z,19.64
2022-09-21T00:55:47.654Z,19.67
2022-09-21T00:55:57.647Z,19.68
2022-09-21T00:56:07.651Z,19.70
2022-09-21T00:56:17.645Z,19.67
2022-09-21T00:56:27.649Z,19.71
2022-09-21T00:56:37.642Z,19.68
2022-09-21T00:56:47.645Z,19.71
2022-09-21T00:56:57.639Z,19.70
2022-09-21T00:57:07.645Z,19.68
2022-09-21T00:57:17.640Z,19.70
2022-09-21T00:57:37.642Z,19.71
2022-09-21T00:57:47.642Z,19.71
2022-09-21T00:57:57.635Z,19.70
2022-09-21T00:58:07.637Z,19.71
2022-09-21T00:58:17.633Z,19.68
2022-09-21T00:58:27.636Z,19.70
2022-09-21T00:58:37.661Z,19.70
2022-09-21T00:58:47.643Z,19.65
2022-09-21T00:58:57.627Z,19.68
2022-09-21T00:59:07.633Z,19.68
2022-09-21T00:59:21.403Z,19.70
2022-09-21T00:59:30.293Z,19.70
2022-09-21T00:59:37.624Z,19.70
2022-09-21T00:59:47.625Z,19.68
2022-09-21T01:00:07.622Z,19.68
2022-09-21T01:00:17.619Z,19.65
2022-09-21T01:00:27.635Z,19.62
2022-09-21T01:00:37.726Z,19.65
2022-09-21T01:00:47.668Z,19.62
2022-09-21T01:00:57.653Z,19.64
2022-09-21T01:01:07.688Z,19.65
2022-09-21T01:01:17.652Z,19.62
2022-09-21T01:01:27.662Z,19.64
2022-09-21T01:01:37.612Z,19.64
2022-09-21T01:01:47.631Z,19.61
2022-09-21T01:01:57.651Z,19.64
2022-09-21T01:02:07.649Z,19.64
2022-09-21T01:02:17.649Z,19.62
2022-09-21T01:02:27.663Z,19.64
2022-09-21T01:02:37.603Z,19.61
2022-09-21T01:02:47.610Z,19.61
2022-09-21T01:02:57.601Z,19.60
2022-09-21T01:03:07.604Z,19.57
2022-09-21T01:03:17.599Z,19.57
2022-09-21T01:03:27.600Z,19.57
2022-09-21T01:03:37.596Z,19.57
2022-09-21T01:03:47.602Z,19.55
2022-09-21T01:03:57.595Z,19.53
2022-09-21T01:04:07.593Z,19.53
2022-09-21T01:04:17.592Z,19.57
2022-09-21T01:04:27.593Z,19.57
2022-09-21T01:04:37.595Z,19.52
2022-09-21T01:04:47.593Z,19.57
2022-09-21T01:05:07.588Z,19.55
2022-09-21T01:05:17.584Z,19.52
2022-09-21T01:05:27.601Z,19.55
2022-09-21T01:05:37.582Z,19.55
2022-09-21T01:05:47.584Z,19.50
2022-09-21T01:05:57.580Z,19.50
2022-09-21T01:06:07.582Z,19.50
2022-09-21T01:06:17.579Z,19.50
2022-09-21T01:06:27.581Z,19.50
2022-09-21T01:06:37.595Z,19.49
2022-09-21T01:06:47.574Z,19.49
2022-09-21T01:06:57.578Z,19.47
2022-09-21T01:07:07.571Z,19.49
2022-09-21T01:07:17.574Z,19.46
2022-09-21T01:07:37.571Z,19.47
2022-09-21T01:07:47.568Z,19.46
2022-09-21T01:07:57.570Z,19.46
2022-09-21T01:08:07.565Z,19.45
2022-09-21T01:08:17.569Z,19.43
2022-09-21T01:08:27.567Z,19.43
2022-09-21T01:08:37.565Z,19.49
2022-09-21T01:08:47.560Z,19.45
2022-09-21T01:08:57.563Z,19.47
2022-09-21T01:09:07.555Z,19.46
2022-09-21T01:09:17.561Z,19.43
2022-09-21T01:09:27.566Z,19.45
2022-09-21T01:09:37.560Z,19.47
2022-09-21T01:09:47.555Z,19.45
2022-09-21T01:10:07.552Z,19.42
2022-09-21T01:10:17.552Z,19.43
2022-09-21T01:10:27.562Z,19.43
2022-09-21T01:10:37.550Z,19.42
2022-09-21T01:10:47.546Z,19.45
2022-09-21T01:10:57.548Z,19.45
2022-09-21T01:11:07.544Z,19.43
2022-09-21T01:11:17.544Z,19.46
2022-09-21T01:11:27.542Z,19.45
2022-09-21T01:11:37.544Z,19.43
2022-09-21T01:11:47.543Z,19.43
2022-09-21T01:11:57.542Z,19.46
2022-09-21T01:12:07.546Z,19.43
2022-09-21T01:12:17.559Z,19.46
2022-09-21T01:12:27.535Z,19.46
2022-09-21T01:12:37.537Z,19.46
2022-09-21T01:12:57.539Z,19.45
2022-09-21T01:13:07.536Z,19.46
2022-09-21T01:13:17.534Z,19.45
2022-09-21T01:13:27.529Z,19.43
2022-09-21T01:13:37.531Z,19.45
2022-09-21T01:13:47.529Z,19.42
2022-09-21T01:13:57.528Z,19.39
2022-09-21T01:14:08.056Z,19.40
2022-09-21T01:14:17.526Z,19.39
2022-09-21T01:14:27.530Z,19.40
2022-09-21T01:14:37.522Z,19.40
2022-09-21T01:14:47.519Z,19.40
2022-09-21T01:14:57.528Z,19.39
2022-09-21T01:15:07.524Z,19.34
2022-09-21T01:15:17.519Z,19.39
2022-09-21T01:15:27.515Z,19.38
2022-09-21T01:15:37.518Z,19.38
2022-09-21T01:15:47.513Z,19.39
2022-09-21T01:15:57.558Z,19.38
2022-09-21T01:16:07.546Z,19.38
2022-09-21T01:16:17.526Z,19.39
2022-09-21T01:16:27.565Z,19.38
2022-09-21T01:16:37.523Z,19.38
2022-09-21T01:16:47.519Z,19.39
2022-09-21T01:16:57.520Z,19.39
2022-09-21T01:17:07.521Z,19.39
2022-09-21T01:17:17.532Z,19.38
2022-09-21T01:17:27.539Z,19.39
2022-09-21T01:17:37.525Z,19.38
2022-09-21T01:17:47.516Z,19.39
2022-09-21T01:17:57.524Z,19.40
2022-09-21T01:18:07.520Z,19.39
2022-09-21T01:18:17.510Z,19.40
2022-09-21T01:18:27.517Z,19.40
2022-09-21T01:18:37.511Z,19.40
2022-09-21T01:18:47.514Z,19.42
2022-09-21T01:18:57.505Z,19.40
2022-09-21T01:19:07.507Z,19.40
2022-09-21T01:19:17.527Z,19.42
2022-09-21T01:19:27.497Z,19.42
2022-09-21T01:19:37.521Z,19.39
2022-09-21T01:19:47.503Z,19.40
2022-09-21T01:19:57.496Z,19.38
2022-09-21T01:20:07.509Z,19.43
2022-09-21T01:20:17.507Z,19.42
2022-09-21T01:20:27.482Z,19.39
2022-09-21T01:20:37.500Z,19.39
2022-09-21T01:20:47.536Z,19.38
2022-09-21T01:20:57.489Z,19.39
2022-09-21T01:21:07.506Z,19.39
2022-09-21T01:21:17.526Z,19.38
2022-09-21T01:21:27.473Z,19.35
2022-09-21T01:21:37.492Z,19.34
2022-09-21T01:21:47.492Z,19.35
2022-09-21T01:21:57.484Z,19.38
2022-09-21T01:22:07.488Z,19.35
2022-09-21T01:22:17.507Z,19.38
2022-09-21T01:22:27.479Z,19.34
2022-09-21T01:22:37.499Z,19.39
2022-09-21T01:22:47.486Z,19.38
2022-09-21T01:22:57.471Z,19.38
2022-09-21T01:23:07.523Z,19.38
2022-09-21T01:23:17.466Z,19.35
2022-09-21T01:23:27.485Z,19.38
2022-09-21T01:23:37.681Z,19.38
2022-09-21T01:23:47.486Z,19.35
2022-09-21T01:23:57.468Z,19.34
2022-09-21T01:24:07.467Z,19.35
2022-09-21T01:24:17.466Z,19.39
2022-09-21T01:24:27.469Z,19.38
2022-09-21T01:24:37.476Z,19.38
2022-09-21T01:24:47.466Z,19.42
2022-09-21T01:24:57.468Z,19.38
2022-09-21T01:25:07.458Z,19.39
2022-09-21T01:25:17.474Z,19.42
2022-09-21T01:25:27.455Z,19.43
2022-09-21T01:25:37.464Z,19.42
2022-09-21T01:25:47.471Z,19.43
2022-09-21T01:25:57.447Z,19.46
2022-09-21T01:26:07.458Z,19.46
2022-09-21T01:26:17.478Z,19.47
2022-09-21T01:26:27.440Z,19.49
2022-09-21T01:26:37.451Z,19.49
2022-09-21T01:26:47.450Z,19.52
2022-09-21T01:26:57.451Z,19.53
2022-09-21T01:27:07.457Z,19.50
2022-09-21T01:27:17.466Z,19.52
2022-09-21T01:27:27.445Z,19.52
2022-09-21T01:27:37.452Z,19.50
2022-09-21T01:27:47.451Z,19.49
2022-09-21T01:27:57.440Z,19.53
2022-09-21T01:28:07.467Z,19.50
2022-09-21T01:28:17.436Z,19.52
2022-09-21T01:28:27.426Z,19.50
2022-09-21T01:28:37.426Z,19.52
2022-09-21T01:28:47.440Z,19.53
2022-09-21T01:28:57.425Z,19.53
2022-09-21T01:29:07.424Z,19.52
2022-09-21T01:29:17.425Z,19.52
2022-09-21T01:29:27.421Z,19.52
2022-09-21T01:29:37.421Z,19.53
2022-09-21T01:29:47.422Z,19.52
2022-09-21T01:29:57.420Z,19.53
2022-09-21T01:30:07.414Z,19.50
2022-09-21T01:30:27.420Z,19.52
2022-09-21T01:30:37.414Z,19.50
2022-09-21T01:30:49.150Z,19.50
2022-09-21T01:30:57.413Z,19.49
2022-09-21T01:31:07.533Z,19.50
2022-09-21T01:31:17.499Z,19.50
2022-09-21T01:31:27.465Z,19.52
2022-09-21T01:31:37.436Z,19.50
2022-09-21T01:31:47.470Z,19.52
2022-09-21T01:31:57.405Z,19.53
2022-09-21T01:32:07.415Z,19.53
2022-09-21T01:32:17.407Z,19.53
2022-09-21T01:32:27.398Z,19.52
2022-09-21T01:32:37.402Z,19.50
2022-09-21T01:32:57.399Z,19.52
2022-09-21T01:33:07.398Z,19.50
2022-09-21T01:33:17.397Z,19.52
2022-09-21T01:33:27.393Z,19.50
2022-09-21T01:33:37.395Z,19.50
2022-09-21T01:33:47.391Z,19.50
2022-09-21T01:33:57.394Z,19.52
2022-09-21T01:34:07.515Z,19.49
2022-09-21T01:34:17.392Z,19.50
2022-09-21T01:34:27.386Z,19.52
2022-09-21T01:34:37.392Z,19.52
2022-09-21T01:34:47.385Z,19.53
2022-09-21T01:34:57.387Z,19.52
2022-09-21T01:35:07.400Z,19.55
2022-09-21T01:35:17.382Z,19.55
2022-09-21T01:35:37.383Z,19.55
2022-09-21T01:35:47.378Z,19.55
2022-09-21T01:35:57.381Z,19.52
2022-09-21T01:36:07.375Z,19.57
2022-09-21T01:36:17.376Z,19.55
2022-09-21T01:36:27.374Z,19.58
2022-09-21T01:36:37.376Z,19.60
2022-09-21T01:36:47.371Z,19.58
2022-09-21T01:36:57.379Z,19.57
2022-09-21T01:37:07.369Z,19.58
2022-09-21T01:37:17.369Z,19.58
2022-09-21T01:37:27.367Z,19.62
2022-09-21T01:37:37.367Z,19.60
2022-09-21T01:37:47.364Z,19.60
2022-09-21T01:37:57.367Z,19.62
2022-09-21T01:38:07.363Z,19.62
2022-09-21T01:38:17.363Z,19.60
2022-09-21T01:38:27.365Z,19.60
2022-09-21T01:38:37.367Z,19.60
2022-09-21T01:38:47.358Z,19.58
2022-09-21T01:38:57.360Z,19.62
2022-09-21T01:39:07.356Z,19.60
2022-09-21T01:39:17.369Z,19.55
2022-09-21T01:39:27.353Z,19.57
2022-09-21T01:39:37.354Z,19.57
2022-09-21T01:39:47.350Z,19.60
2022-09-21T01:39:57.350Z,19.57
2022-09-21T01:40:07.390Z,19.58
2022-09-21T01:40:17.393Z,19.55
2022-09-21T01:40:29.962Z,19.58
2022-09-21T01:40:37.704Z,19.60
2022-09-21T01:40:57.347Z,19.57
2022-09-21T01:41:07.341Z,19.57
2022-09-21T01:41:17.344Z,19.55
2022-09-21T01:41:27.339Z,19.57
2022-09-21T01:41:37.342Z,19.53
2022-09-21T01:41:47.337Z,19.53
2022-09-21T01:41:57.337Z,19.58
2022-09-21T01:42:07.334Z,19.53
2022-09-21T01:42:17.335Z,19.53
2022-09-21T01:42:27.332Z,19.53
2022-09-21T01:42:37.354Z,19.55
2022-09-21T01:42:47.336Z,19.53
2022-09-21T01:42:57.334Z,19.52
2022-09-21T01:43:07.328Z,19.50
2022-09-21T01:43:17.330Z,19.52
2022-09-21T01:43:27.324Z,19.53
2022-09-21T01:43:37.330Z,19.53
2022-09-21T01:43:47.324Z,19.52
2022-09-21T01:43:57.326Z,19.55
2022-09-21T01:44:07.327Z,19.50
2022-09-21T01:44:17.323Z,19.52
2022-09-21T01:44:27.324Z,19.53
2022-09-21T01:44:37.318Z,19.52
2022-09-21T01:44:47.317Z,19.52
2022-09-21T01:44:57.319Z,19.55
2022-09-21T01:45:07.321Z,19.52
2022-09-21T01:45:17.317Z,19.53
2022-09-21T01:45:27.333Z,19.52
2022-09-21T01:45:37.373Z,19.53
2022-09-21T01:45:47.326Z,19.53
2022-09-21T01:45:57.406Z,19.53
2022-09-21T01:46:07.366Z,19.53
2022-09-21T01:46:17.314Z,19.52
2022-09-21T01:46:27.305Z,19.53
2022-09-21T01:46:37.321Z,19.55
2022-09-21T01:46:47.305Z,19.57
2022-09-21T01:46:57.304Z,19.58
2022-09-21T01:47:07.308Z,19.58
2022-09-21T01:47:17.311Z,19.57
2022-09-21T01:47:27.298Z,19.55
2022-09-21T01:47:37.300Z,19.60
2022-09-21T01:47:47.317Z,19.57
2022-09-21T01:47:57.300Z,19.53
2022-09-21T01:48:07.293Z,19.55
2022-09-21T01:48:17.297Z,19.52
2022-09-21T01:48:37.299Z,19.55
2022-09-21T01:48:47.312Z,19.55
2022-09-21T01:48:57.336Z,19.55
2022-09-21T01:49:07.489Z,19.53
2022-09-21T01:49:17.286Z,19.55
2022-09-21T01:49:27.288Z,19.57
2022-09-21T01:49:37.285Z,19.53
2022-09-21T01:49:47.286Z,19.57
2022-09-21T01:49:57.280Z,19.55
2022-09-21T01:50:07.285Z,19.55
2022-09-21T01:50:17.277Z,19.53
2022-09-21T01:50:27.280Z,19.57
2022-09-21T01:50:37.274Z,19.53
2022-09-21T01:50:47.281Z,19.55
2022-09-21T01:51:07.274Z,19.53
2022-09-21T01:51:17.277Z,19.53
2022-09-21T01:51:27.278Z,19.55
2022-09-21T01:51:37.273Z,19.55
2022-09-21T01:51:47.277Z,19.57
2022-09-21T01:51:57.284Z,19.55
2022-09-21T01:52:07.271Z,19.58
2022-09-21T01:52:17.266Z,19.57
2022-09-21T01:52:27.266Z,19.55
2022-09-21T01:52:37.263Z,19.55
2022-09-21T01:52:47.265Z,19.55
2022-09-21T01:52:57.260Z,19.55
2022-09-21T01:53:07.261Z,19.55
2022-09-21T01:53:17.256Z,19.57
2022-09-21T01:53:37.255Z,19.55
2022-09-21T01:53:47.258Z,19.55
2022-09-21T01:53:57.253Z,19.53
2022-09-21T01:54:07.256Z,19.57
2022-09-21T01:54:17.252Z,19.55
2022-09-21T01:54:27.255Z,19.53
2022-09-21T01:54:37.254Z,19.53
2022-09-21T01:54:47.252Z,19.49
2022-09-21T01:54:57.248Z,19.50
2022-09-21T01:55:07.248Z,19.49
2022-09-21T01:55:17.247Z,19.49
2022-09-21T01:55:27.246Z,19.50
2022-09-21T01:55:37.242Z,19.47
2022-09-21T01:55:47.247Z,19.47
2022-09-21T01:55:57.241Z,19.46
2022-09-21T01:56:07.245Z,19.46
2022-09-21T01:56:17.240Z,19.46
2022-09-21T01:56:27.241Z,19.47
2022-09-21T01:56:37.235Z,19.46
2022-09-21T01:56:47.238Z,19.43
2022-09-21T01:56:57.234Z,19.45
2022-09-21T01:57:07.248Z,19.46
2022-09-21T01:57:17.237Z,19.45
2022-09-21T01:57:27.233Z,19.45
2022-09-21T01:57:37.230Z,19.43
2022-09-21T01:57:47.232Z,19.42
2022-09-21T01:57:57.228Z,19.42
2022-09-21T01:58:07.228Z,19.42
2022-09-21T01:58:17.225Z,19.42
2022-09-21T01:58:27.226Z,19.45
2022-09-21T01:58:37.220Z,19.43
2022-09-21T01:58:47.224Z,19.43
2022-09-21T01:58:57.275Z,19.42
2022-09-21T01:59:07.219Z,19.43
2022-09-21T01:59:17.218Z,19.43
2022-09-21T01:59:27.219Z,19.42
2022-09-21T01:59:37.219Z,19.46
2022-09-21T01:59:47.216Z,19.47
2022-09-21T01:59:57.240Z,19.45
2022-09-21T02:00:07.215Z,19.46
2022-09-21T02:00:17.211Z,19.46
2022-09-21T02:00:27.220Z,19.46
2022-09-21T02:00:37.222Z,19.46
2022-09-21T02:00:47.240Z,19.47
2022-09-21T02:00:57.223Z,19.47
2022-09-21T02:01:07.355Z,19.46
2022-09-21T02:01:17.204Z,19.49
2022-09-21T02:01:37.258Z,19.50
2022-09-21T02:01:47.222Z,19.47
2022-09-21T02:01:57.209Z,19.46
2022-09-21T02:02:07.253Z,19.49
2022-09-21T02:02:17.227Z,19.49
2022-09-21T02:02:27.199Z,19.49
2022-09-21T02:02:37.198Z,19.46
2022-09-21T02:02:47.196Z,19.50
2022-09-21T02:02:57.192Z,19.49
2022-09-21T02:03:07.195Z,19.45
2022-09-21T02:03:17.192Z,19.50
2022-09-21T02:03:27.196Z,19.46
2022-09-21T02:03:37.195Z,19.46
2022-09-21T02:03:47.191Z,19.49
2022-09-21T02:03:57.186Z,19.46
2022-09-21T02:04:07.332Z,19.47
2022-09-21T02:04:17.184Z,19.46
2022-09-21T02:04:27.186Z,19.49
2022-09-21T02:04:37.183Z,19.49
2022-09-21T02:04:47.184Z,19.47
2022-09-21T02:04:57.183Z,19.50
2022-09-21T02:05:07.200Z,19.47
2022-09-21T02:05:17.177Z,19.50
2022-09-21T02:05:27.188Z,19.46
2022-09-21T02:05:37.175Z,19.49
2022-09-21T02:05:47.178Z,19.49
2022-09-21T02:05:57.175Z,19.49
2022-09-21T02:06:07.176Z,19.47
2022-09-21T02:06:17.171Z,19.49
2022-09-21T02:06:27.181Z,19.47
2022-09-21T02:06:37.170Z,19.46
2022-09-21T02:06:47.172Z,19.49
2022-09-21T02:06:57.175Z,19.50
2022-09-21T02:07:07.165Z,19.50
2022-09-21T02:07:17.163Z,19.47
2022-09-21T02:07:27.165Z,19.49
2022-09-21T02:07:37.166Z,19.50
2022-09-21T02:07:47.174Z,19.49
2022-09-21T02:07:57.159Z,19.47
2022-09-21T02:08:07.161Z,19.47
2022-09-21T02:08:17.156Z,19.49
2022-09-21T02:08:27.159Z,19.49
2022-09-21T02:08:37.153Z,19.49
2022-09-21T02:08:47.159Z,19.46
2022-09-21T02:08:57.152Z,19.49
2022-09-21T02:09:07.157Z,19.47
2022-09-21T02:09:17.152Z,19.47
2022-09-21T02:09:27.153Z,19.47
2022-09-21T02:09:37.147Z,19.47
2022-09-21T02:09:47.149Z,19.46
2022-09-21T02:09:57.145Z,19.47
2022-09-21T02:10:07.147Z,19.46
2022-09-21T02:10:17.143Z,19.45
2022-09-21T02:10:27.144Z,19.46
2022-09-21T02:10:37.142Z,19.47
2022-09-21T02:10:47.144Z,19.46
2022-09-21T02:10:57.139Z,19.46
2022-09-21T02:11:07.142Z,19.46
2022-09-21T02:11:17.136Z,19.45
2022-09-21T02:11:27.136Z,19.45
2022-09-21T02:11:37.149Z,19.45
2022-09-21T02:11:47.138Z,19.43
2022-09-21T02:11:57.130Z,19.45
2022-09-21T02:12:07.131Z,19.43
2022-09-21T02:12:19.311Z,19.45
2022-09-21T02:12:27.141Z,19.45
2022-09-21T02:12:37.126Z,19.43
2022-09-21T02:12:47.130Z,19.43